sensor_id;sensor_type;location;lat;lon;timestamp;P1;durP1;ratioP1;P2;durP2;ratioP2
49590;SDS011;35496;-21.974;-46.800;2022-12-07T00:01:28;3.70;;;3.00;;
49590;SDS011;35496;-21.974;-46.800;2022-12-07T00:03:58;9.82;;;3.85;;
49590;SDS011;35496;-21.974;-46.800;2022-12-07T00:06:30;3.95;;;3.28;;
49590;SDS011;35496;-21.974;-46.800;2022-12-07T00:09:02;3.55;;;3.25;;
49590;SDS011;35496;-21.974;-46.800;2022-12-07T00:11:30;5.50;;;2.60;;
49590;SDS011;35496;-21.974;-46.800;2022-12-07T00:14:00;6.53;;;3.40;;
49590;SDS011;35496;-21.974;-46.800;2022-12-07T00:16:31;5.10;;;3.58;;
49590;SDS011;35496;-21.974;-46.800;2022-12-07T00:19:02;4.05;;;3.20;;
49590;SDS011;35496;-21.974;-46.800;2022-12-07T00:21:31;7.32;;;3.30;;
49590;SDS011;35496;-21.974;-46.800;2022-12-07T00:24:01;4.22;;;3.92;;
49590;SDS011;35496;-21.974;-46.800;2022-12-07T00:26:29;3.83;;;3.10;;
49590;SDS011;35496;-21.974;-46.800;2022-12-07T00:28:59;5.25;;;3.17;;
49590;SDS011;35496;-21.974;-46.800;2022-12-07T00:31:34;4.03;;;3.67;;
49590;SDS011;35496;-21.974;-46.800;2022-12-07T00:34:07;5.00;;;3.80;;
49590;SDS011;35496;-21.974;-46.800;2022-12-07T00:36:39;5.15;;;4.57;;
49590;SDS011;35496;-21.974;-46.800;2022-12-07T00:39:06;4.43;;;3.67;;
49590;SDS011;35496;-21.974;-46.800;2022-12-07T00:41:32;4.65;;;3.80;;
49590;SDS011;35496;-21.974;-46.800;2022-12-07T00:43:59;5.93;;;4.43;;
49590;SDS011;35496;-21.974;-46.800;2022-12-07T00:46:26;4.50;;;4.07;;
49590;SDS011;35496;-21.974;-46.800;2022-12-07T00:48:53;6.68;;;4.53;;
49590;SDS011;35496;-21.974;-46.800;2022-12-07T00:51:21;3.88;;;3.42;;
49590;SDS011;35496;-21.974;-46.800;2022-12-07T00:53:49;4.03;;;3.00;;
49590;SDS011;35496;-21.974;-46.800;2022-12-07T00:56:21;3.45;;;3.25;;
49590;SDS011;35496;-21.974;-46.800;2022-12-07T01:01:20;3.88;;;3.17;;
49590;SDS011;35496;-21.974;-46.800;2022-12-07T01:03:47;3.85;;;2.95;;
49590;SDS011;35496;-21.974;-46.800;2022-12-07T01:06:17;3.65;;;2.42;;
49590;SDS011;35496;-21.974;-46.800;2022-12-07T01:08:45;9.57;;;2.92;;
49590;SDS011;35496;-21.974;-46.800;2022-12-07T01:11:15;3.15;;;1.70;;
49590;SDS011;35496;-21.974;-46.800;2022-12-07T01:13:43;2.05;;;1.27;;
49590;SDS011;35496;-21.974;-46.800;2022-12-07T01:16:11;4.13;;;1.80;;
49590;SDS011;35496;-21.974;-46.800;2022-12-07T01:18:40;4.50;;;1.73;;
49590;SDS011;35496;-21.974;-46.800;2022-12-07T01:23:39;1.43;;;1.33;;
49590;SDS011;35496;-21.974;-46.800;2022-12-07T01:26:07;4.30;;;2.28;;
49590;SDS011;35496;-21.974;-46.800;2022-12-07T01:28:38;6.82;;;2.20;;
49590;SDS011;35496;-21.974;-46.800;2022-12-07T01:31:08;2.13;;;1.55;;
49590;SDS011;35496;-21.974;-46.800;2022-12-07T01:33:38;1.90;;;1.27;;
49590;SDS011;35496;-21.974;-46.800;2022-12-07T01:38:47;4.10;;;1.98;;
49590;SDS011;35496;-21.974;-46.800;2022-12-07T01:41:18;8.82;;;2.17;;
49590;SDS011;35496;-21.974;-46.800;2022-12-07T01:49:24;2.60;;;2.40;;
49590;SDS011;35496;-21.974;-46.800;2022-12-07T01:52:01;2.33;;;2.13;;
49590;SDS011;35496;-21.974;-46.800;2022-12-07T01:54:53;11.82;;;2.55;;
49590;SDS011;35496;-21.974;-46.800;2022-12-07T01:57:23;5.72;;;2.47;;
49590;SDS011;35496;-21.974;-46.800;2022-12-07T01:59:50;4.93;;;2.10;;
49590;SDS011;35496;-21.974;-46.800;2022-12-07T02:02:23;4.05;;;2.17;;
49590;SDS011;35496;-21.974;-46.800;2022-12-07T02:04:54;2.35;;;2.15;;
49590;SDS011;35496;-21.974;-46.800;2022-12-07T02:07:23;2.00;;;1.90;;
49590;SDS011;35496;-21.974;-46.800;2022-12-07T02:09:51;2.38;;;2.08;;
49590;SDS011;35496;-21.974;-46.800;2022-12-07T02:12:18;2.65;;;1.85;;
49590;SDS011;35496;-21.974;-46.800;2022-12-07T02:14:45;2.28;;;1.88;;
49590;SDS011;35496;-21.974;-46.800;2022-12-07T02:17:20;4.85;;;2.47;;
49590;SDS011;35496;-21.974;-46.800;2022-12-07T02:31:41;2.50;;;2.30;;
49590;SDS011;35496;-21.974;-46.800;2022-12-07T02:34:49;3.17;;;2.10;;
49590;SDS011;35496;-21.974;-46.800;2022-12-07T02:37:45;2.75;;;2.25;;
49590;SDS011;35496;-21.974;-46.800;2022-12-07T02:40:18;4.63;;;2.33;;
49590;SDS011;35496;-21.974;-46.800;2022-12-07T02:43:16;2.40;;;2.13;;
49590;SDS011;35496;-21.974;-46.800;2022-12-07T02:45:51;3.10;;;2.63;;
49590;SDS011;35496;-21.974;-46.800;2022-12-07T02:48:22;3.45;;;2.35;;
49590;SDS011;35496;-21.974;-46.800;2022-12-07T02:50:51;3.67;;;2.53;;
49590;SDS011;35496;-21.974;-46.800;2022-12-07T02:53:29;2.78;;;2.58;;
49590;SDS011;35496;-21.974;-46.800;2022-12-07T02:55:56;3.05;;;2.10;;
49590;SDS011;35496;-21.974;-46.800;2022-12-07T02:58:28;4.22;;;1.73;;
49590;SDS011;35496;-21.974;-46.800;2022-12-07T03:01:13;3.05;;;2.75;;
49590;SDS011;35496;-21.974;-46.800;2022-12-07T03:04:20;4.43;;;1.90;;
49590;SDS011;35496;-21.974;-46.800;2022-12-07T03:06:52;4.57;;;2.15;;
49590;SDS011;35496;-21.974;-46.800;2022-12-07T03:09:33;3.67;;;2.92;;
49590;SDS011;35496;-21.974;-46.800;2022-12-07T03:12:19;4.80;;;2.40;;
49590;SDS011;35496;-21.974;-46.800;2022-12-07T03:14:59;5.78;;;2.65;;
49590;SDS011;35496;-21.974;-46.800;2022-12-07T03:17:34;3.08;;;2.47;;
49590;SDS011;35496;-21.974;-46.800;2022-12-07T03:20:05;2.85;;;2.53;;
49590;SDS011;35496;-21.974;-46.800;2022-12-07T03:22:35;2.97;;;2.38;;
49590;SDS011;35496;-21.974;-46.800;2022-12-07T03:25:08;4.60;;;3.17;;
49590;SDS011;35496;-21.974;-46.800;2022-12-07T03:27:44;3.55;;;3.25;;
49590;SDS011;35496;-21.974;-46.800;2022-12-07T03:30:26;4.07;;;3.47;;
49590;SDS011;35496;-21.974;-46.800;2022-12-07T03:33:10;5.55;;;2.58;;
49590;SDS011;35496;-21.974;-46.800;2022-12-07T03:38:42;4.72;;;2.60;;
49590;SDS011;35496;-21.974;-46.800;2022-12-07T03:41:19;4.53;;;2.50;;
49590;SDS011;35496;-21.974;-46.800;2022-12-07T03:43:50;4.55;;;2.05;;
49590;SDS011;35496;-21.974;-46.800;2022-12-07T03:46:36;2.35;;;1.60;;
49590;SDS011;35496;-21.974;-46.800;2022-12-07T03:57:20;2.30;;;1.85;;
49590;SDS011;35496;-21.974;-46.800;2022-12-07T03:59:48;3.10;;;1.98;;
49590;SDS011;35496;-21.974;-46.800;2022-12-07T04:02:39;3.55;;;1.45;;
49590;SDS011;35496;-21.974;-46.800;2022-12-07T04:05:06;1.95;;;1.55;;
49590;SDS011;35496;-21.974;-46.800;2022-12-07T04:07:32;2.20;;;1.25;;
49590;SDS011;35496;-21.974;-46.800;2022-12-07T04:09:58;2.53;;;1.63;;
49590;SDS011;35496;-21.974;-46.800;2022-12-07T04:12:24;4.35;;;1.60;;
49590;SDS011;35496;-21.974;-46.800;2022-12-07T04:14:50;1.80;;;1.52;;
49590;SDS011;35496;-21.974;-46.800;2022-12-07T04:17:16;1.30;;;1.20;;
49590;SDS011;35496;-21.974;-46.800;2022-12-07T04:19:42;2.60;;;2.13;;
49590;SDS011;35496;-21.974;-46.800;2022-12-07T04:22:08;2.47;;;2.00;;
49590;SDS011;35496;-21.974;-46.800;2022-12-07T04:24:34;4.10;;;1.50;;
49590;SDS011;35496;-21.974;-46.800;2022-12-07T04:27:01;2.60;;;1.83;;
49590;SDS011;35496;-21.974;-46.800;2022-12-07T04:29:27;1.70;;;1.60;;
49590;SDS011;35496;-21.974;-46.800;2022-12-07T04:31:53;2.65;;;1.60;;
49590;SDS011;35496;-21.974;-46.800;2022-12-07T04:34:19;5.13;;;2.45;;
49590;SDS011;35496;-21.974;-46.800;2022-12-07T04:36:45;4.28;;;1.60;;
49590;SDS011;35496;-21.974;-46.800;2022-12-07T04:39:20;4.03;;;1.20;;
49590;SDS011;35496;-21.974;-46.800;2022-12-07T04:41:46;6.40;;;2.10;;
49590;SDS011;35496;-21.974;-46.800;2022-12-07T04:44:12;2.10;;;1.92;;
49590;SDS011;35496;-21.974;-46.800;2022-12-07T04:46:40;2.80;;;1.60;;
49590;SDS011;35496;-21.974;-46.800;2022-12-07T04:49:06;3.90;;;1.73;;
49590;SDS011;35496;-21.974;-46.800;2022-12-07T04:51:32;2.40;;;1.45;;
49590;SDS011;35496;-21.974;-46.800;2022-12-07T04:53:58;4.43;;;2.03;;
49590;SDS011;35496;-21.974;-46.800;2022-12-07T04:56:24;1.45;;;1.35;;
49590;SDS011;35496;-21.974;-46.800;2022-12-07T04:58:51;1.58;;;1.48;;
49590;SDS011;35496;-21.974;-46.800;2022-12-07T05:01:18;4.28;;;2.15;;
49590;SDS011;35496;-21.974;-46.800;2022-12-07T05:03:44;2.67;;;1.40;;
49590;SDS011;35496;-21.974;-46.800;2022-12-07T05:06:11;2.75;;;1.88;;
49590;SDS011;35496;-21.974;-46.800;2022-12-07T05:08:37;3.40;;;1.55;;
49590;SDS011;35496;-21.974;-46.800;2022-12-07T05:11:03;2.88;;;2.00;;
49590;SDS011;35496;-21.974;-46.800;2022-12-07T05:13:30;3.65;;;2.08;;
49590;SDS011;35496;-21.974;-46.800;2022-12-07T05:15:57;1.85;;;1.67;;
49590;SDS011;35496;-21.974;-46.800;2022-12-07T05:18:23;2.30;;;1.88;;
49590;SDS011;35496;-21.974;-46.800;2022-12-07T05:20:49;1.73;;;1.63;;
49590;SDS011;35496;-21.974;-46.800;2022-12-07T05:23:16;2.17;;;1.98;;
49590;SDS011;35496;-21.974;-46.800;2022-12-07T05:25:42;1.63;;;1.27;;
49590;SDS011;35496;-21.974;-46.800;2022-12-07T05:28:08;2.28;;;1.13;;
49590;SDS011;35496;-21.974;-46.800;2022-12-07T05:30:34;2.75;;;1.83;;
49590;SDS011;35496;-21.974;-46.800;2022-12-07T05:33:01;4.65;;;2.05;;
49590;SDS011;35496;-21.974;-46.800;2022-12-07T05:35:28;9.23;;;1.70;;
49590;SDS011;35496;-21.974;-46.800;2022-12-07T05:37:54;3.13;;;1.08;;
49590;SDS011;35496;-21.974;-46.800;2022-12-07T05:40:21;2.78;;;1.10;;
49590;SDS011;35496;-21.974;-46.800;2022-12-07T05:42:47;1.20;;;1.10;;
49590;SDS011;35496;-21.974;-46.800;2022-12-07T05:45:13;2.13;;;1.50;;
49590;SDS011;35496;-21.974;-46.800;2022-12-07T05:47:39;1.27;;;0.93;;
49590;SDS011;35496;-21.974;-46.800;2022-12-07T05:50:05;1.58;;;1.13;;
49590;SDS011;35496;-21.974;-46.800;2022-12-07T05:52:31;1.60;;;1.25;;
49590;SDS011;35496;-21.974;-46.800;2022-12-07T05:54:58;4.75;;;1.92;;
49590;SDS011;35496;-21.974;-46.800;2022-12-07T05:57:24;3.13;;;1.23;;
49590;SDS011;35496;-21.974;-46.800;2022-12-07T05:59:50;4.20;;;1.42;;
49590;SDS011;35496;-21.974;-46.800;2022-12-07T06:02:16;1.63;;;1.42;;
49590;SDS011;35496;-21.974;-46.800;2022-12-07T06:04:44;6.43;;;1.30;;
49590;SDS011;35496;-21.974;-46.800;2022-12-07T06:07:11;1.77;;;1.33;;
49590;SDS011;35496;-21.974;-46.800;2022-12-07T06:09:38;3.50;;;1.48;;
49590;SDS011;35496;-21.974;-46.800;2022-12-07T06:12:04;2.22;;;1.20;;
49590;SDS011;35496;-21.974;-46.800;2022-12-07T06:14:49;1.65;;;1.48;;
49590;SDS011;35496;-21.974;-46.800;2022-12-07T06:17:15;2.13;;;1.13;;
49590;SDS011;35496;-21.974;-46.800;2022-12-07T06:19:42;1.98;;;1.70;;
49590;SDS011;35496;-21.974;-46.800;2022-12-07T06:22:08;2.60;;;1.40;;
49590;SDS011;35496;-21.974;-46.800;2022-12-07T06:24:36;2.03;;;1.20;;
49590;SDS011;35496;-21.974;-46.800;2022-12-07T06:27:02;4.95;;;2.50;;
49590;SDS011;35496;-21.974;-46.800;2022-12-07T06:29:28;2.88;;;1.45;;
49590;SDS011;35496;-21.974;-46.800;2022-12-07T06:31:54;1.40;;;1.20;;
49590;SDS011;35496;-21.974;-46.800;2022-12-07T06:34:20;1.42;;;1.25;;
49590;SDS011;35496;-21.974;-46.800;2022-12-07T06:36:48;1.80;;;1.40;;
49590;SDS011;35496;-21.974;-46.800;2022-12-07T06:39:17;4.70;;;1.38;;
49590;SDS011;35496;-21.974;-46.800;2022-12-07T06:41:44;11.35;;;2.03;;
49590;SDS011;35496;-21.974;-46.800;2022-12-07T06:44:10;1.38;;;0.77;;
49590;SDS011;35496;-21.974;-46.800;2022-12-07T06:46:36;1.90;;;1.17;;
49590;SDS011;35496;-21.974;-46.800;2022-12-07T06:49:03;1.38;;;1.20;;
49590;SDS011;35496;-21.974;-46.800;2022-12-07T06:51:29;0.82;;;0.82;;
49590;SDS011;35496;-21.974;-46.800;2022-12-07T06:53:55;1.40;;;1.00;;
49590;SDS011;35496;-21.974;-46.800;2022-12-07T06:56:22;1.65;;;1.05;;
49590;SDS011;35496;-21.974;-46.800;2022-12-07T06:58:48;1.90;;;1.15;;
49590;SDS011;35496;-21.974;-46.800;2022-12-07T07:01:15;3.85;;;1.45;;
49590;SDS011;35496;-21.974;-46.800;2022-12-07T07:03:42;2.25;;;0.98;;
49590;SDS011;35496;-21.974;-46.800;2022-12-07T07:06:08;1.85;;;1.02;;
49590;SDS011;35496;-21.974;-46.800;2022-12-07T07:08:38;1.17;;;0.60;;
49590;SDS011;35496;-21.974;-46.800;2022-12-07T07:11:04;1.95;;;1.10;;
49590;SDS011;35496;-21.974;-46.800;2022-12-07T07:13:31;1.05;;;0.80;;
49590;SDS011;35496;-21.974;-46.800;2022-12-07T07:15:57;0.70;;;0.70;;
49590;SDS011;35496;-21.974;-46.800;2022-12-07T07:18:23;0.82;;;0.70;;
49590;SDS011;35496;-21.974;-46.800;2022-12-07T07:20:52;0.90;;;0.90;;
49590;SDS011;35496;-21.974;-46.800;2022-12-07T07:23:19;0.93;;;0.63;;
49590;SDS011;35496;-21.974;-46.800;2022-12-07T07:25:45;1.52;;;0.60;;
49590;SDS011;35496;-21.974;-46.800;2022-12-07T07:28:11;0.80;;;0.80;;
49590;SDS011;35496;-21.974;-46.800;2022-12-07T07:30:37;2.33;;;0.77;;
49590;SDS011;35496;-21.974;-46.800;2022-12-07T07:33:04;0.47;;;0.47;;
49590;SDS011;35496;-21.974;-46.800;2022-12-07T07:35:31;2.72;;;0.70;;
49590;SDS011;35496;-21.974;-46.800;2022-12-07T07:37:58;3.53;;;0.82;;
49590;SDS011;35496;-21.974;-46.800;2022-12-07T07:40:24;0.65;;;0.65;;
49590;SDS011;35496;-21.974;-46.800;2022-12-07T07:42:50;1.55;;;0.63;;
49590;SDS011;35496;-21.974;-46.800;2022-12-07T07:45:17;1.55;;;0.38;;
49590;SDS011;35496;-21.974;-46.800;2022-12-07T07:47:43;0.60;;;0.47;;
49590;SDS011;35496;-21.974;-46.800;2022-12-07T07:50:09;0.60;;;0.60;;
49590;SDS011;35496;-21.974;-46.800;2022-12-07T07:52:36;0.73;;;0.35;;
49590;SDS011;35496;-21.974;-46.800;2022-12-07T07:55:02;0.82;;;0.35;;
49590;SDS011;35496;-21.974;-46.800;2022-12-07T07:57:28;0.52;;;0.52;;
49590;SDS011;35496;-21.974;-46.800;2022-12-07T07:59:54;0.35;;;0.35;;
49590;SDS011;35496;-21.974;-46.800;2022-12-07T08:02:20;0.40;;;0.35;;
49590;SDS011;35496;-21.974;-46.800;2022-12-07T08:04:47;0.38;;;0.38;;
49590;SDS011;35496;-21.974;-46.800;2022-12-07T08:07:14;0.30;;;0.30;;
49590;SDS011;35496;-21.974;-46.800;2022-12-07T08:09:40;0.40;;;0.40;;
49590;SDS011;35496;-21.974;-46.800;2022-12-07T08:12:06;0.17;;;0.17;;
49590;SDS011;35496;-21.974;-46.800;2022-12-07T08:14:33;0.70;;;0.70;;
49590;SDS011;35496;-21.974;-46.800;2022-12-07T08:16:59;0.40;;;0.38;;
49590;SDS011;35496;-21.974;-46.800;2022-12-07T08:19:25;0.47;;;0.47;;
49590;SDS011;35496;-21.974;-46.800;2022-12-07T08:21:51;0.50;;;0.30;;
49590;SDS011;35496;-21.974;-46.800;2022-12-07T08:24:18;0.73;;;0.50;;
49590;SDS011;35496;-21.974;-46.800;2022-12-07T08:26:44;0.93;;;0.30;;
49590;SDS011;35496;-21.974;-46.800;2022-12-07T08:29:10;0.30;;;0.30;;
49590;SDS011;35496;-21.974;-46.800;2022-12-07T08:31:36;0.38;;;0.25;;
49590;SDS011;35496;-21.974;-46.800;2022-12-07T08:34:02;0.25;;;0.25;;
49590;SDS011;35496;-21.974;-46.800;2022-12-07T08:36:28;4.03;;;0.75;;
49590;SDS011;35496;-21.974;-46.800;2022-12-07T08:38:54;3.67;;;1.02;;
49590;SDS011;35496;-21.974;-46.800;2022-12-07T08:41:20;0.30;;;0.30;;
49590;SDS011;35496;-21.974;-46.800;2022-12-07T08:43:46;0.95;;;0.52;;
49590;SDS011;35496;-21.974;-46.800;2022-12-07T08:46:18;0.50;;;0.50;;
49590;SDS011;35496;-21.974;-46.800;2022-12-07T08:51:11;0.40;;;0.40;;
49590;SDS011;35496;-21.974;-46.800;2022-12-07T08:53:37;0.65;;;0.65;;
49590;SDS011;35496;-21.974;-46.800;2022-12-07T08:56:04;1.45;;;0.35;;
49590;SDS011;35496;-21.974;-46.800;2022-12-07T08:58:31;0.60;;;0.60;;
49590;SDS011;35496;-21.974;-46.800;2022-12-07T09:00:57;0.68;;;0.68;;
49590;SDS011;35496;-21.974;-46.800;2022-12-07T09:03:23;3.10;;;0.93;;
49590;SDS011;35496;-21.974;-46.800;2022-12-07T09:05:49;0.30;;;0.30;;
49590;SDS011;35496;-21.974;-46.800;2022-12-07T09:08:15;0.60;;;0.60;;
49590;SDS011;35496;-21.974;-46.800;2022-12-07T09:10:42;0.52;;;0.52;;
49590;SDS011;35496;-21.974;-46.800;2022-12-07T09:13:08;1.30;;;0.20;;
49590;SDS011;35496;-21.974;-46.800;2022-12-07T09:15:34;0.22;;;0.22;;
49590;SDS011;35496;-21.974;-46.800;2022-12-07T09:18:00;0.50;;;0.40;;
49590;SDS011;35496;-21.974;-46.800;2022-12-07T09:20:26;0.85;;;0.38;;
49590;SDS011;35496;-21.974;-46.800;2022-12-07T09:22:52;1.58;;;0.93;;
49590;SDS011;35496;-21.974;-46.800;2022-12-07T09:25:18;1.77;;;0.52;;
49590;SDS011;35496;-21.974;-46.800;2022-12-07T09:27:44;0.40;;;0.40;;
49590;SDS011;35496;-21.974;-46.800;2022-12-07T09:30:10;0.60;;;0.60;;
49590;SDS011;35496;-21.974;-46.800;2022-12-07T09:32:36;1.40;;;0.32;;
49590;SDS011;35496;-21.974;-46.800;2022-12-07T09:35:02;0.20;;;0.20;;
49590;SDS011;35496;-21.974;-46.800;2022-12-07T09:37:28;0.50;;;0.50;;
49590;SDS011;35496;-21.974;-46.800;2022-12-07T09:39:57;1.20;;;0.70;;
49590;SDS011;35496;-21.974;-46.800;2022-12-07T09:42:36;0.90;;;0.90;;
49590;SDS011;35496;-21.974;-46.800;2022-12-07T09:45:05;1.00;;;0.50;;
49590;SDS011;35496;-21.974;-46.800;2022-12-07T09:47:32;1.30;;;0.30;;
49590;SDS011;35496;-21.974;-46.800;2022-12-07T09:50:06;0.38;;;0.35;;
49590;SDS011;35496;-21.974;-46.800;2022-12-07T09:52:33;0.60;;;0.32;;
49590;SDS011;35496;-21.974;-46.800;2022-12-07T09:54:59;0.57;;;0.47;;
49590;SDS011;35496;-21.974;-46.800;2022-12-07T09:57:30;0.25;;;0.25;;
49590;SDS011;35496;-21.974;-46.800;2022-12-07T09:59:59;0.43;;;0.43;;
49590;SDS011;35496;-21.974;-46.800;2022-12-07T10:02:39;1.25;;;0.40;;
49590;SDS011;35496;-21.974;-46.800;2022-12-07T10:05:15;1.00;;;0.70;;
49590;SDS011;35496;-21.974;-46.800;2022-12-07T10:07:41;0.93;;;0.63;;
49590;SDS011;35496;-21.974;-46.800;2022-12-07T10:10:40;0.22;;;0.22;;
49590;SDS011;35496;-21.974;-46.800;2022-12-07T10:18:18;1.30;;;0.45;;
49590;SDS011;35496;-21.974;-46.800;2022-12-07T10:20:45;0.47;;;0.47;;
49590;SDS011;35496;-21.974;-46.800;2022-12-07T10:23:16;1.85;;;0.77;;
49590;SDS011;35496;-21.974;-46.800;2022-12-07T10:25:42;1.20;;;1.00;;
49590;SDS011;35496;-21.974;-46.800;2022-12-07T10:30:56;0.45;;;0.30;;
49590;SDS011;35496;-21.974;-46.800;2022-12-07T10:33:32;2.65;;;1.02;;
49590;SDS011;35496;-21.974;-46.800;2022-12-07T10:35:59;1.38;;;0.73;;
49590;SDS011;35496;-21.974;-46.800;2022-12-07T10:38:26;0.85;;;0.57;;
49590;SDS011;35496;-21.974;-46.800;2022-12-07T10:41:13;0.45;;;0.45;;
49590;SDS011;35496;-21.974;-46.800;2022-12-07T10:43:46;2.78;;;1.40;;
49590;SDS011;35496;-21.974;-46.800;2022-12-07T10:57:22;0.63;;;0.63;;
49590;SDS011;35496;-21.974;-46.800;2022-12-07T11:07:21;1.30;;;1.20;;
49590;SDS011;35496;-21.974;-46.800;2022-12-07T11:16:00;1.63;;;1.15;;
49590;SDS011;35496;-21.974;-46.800;2022-12-07T11:20:55;2.10;;;1.45;;
49590;SDS011;35496;-21.974;-46.800;2022-12-07T11:26:13;1.42;;;1.33;;
49590;SDS011;35496;-21.974;-46.800;2022-12-07T11:34:24;1.05;;;0.93;;
49590;SDS011;35496;-21.974;-46.800;2022-12-07T11:36:53;2.67;;;1.63;;
49590;SDS011;35496;-21.974;-46.800;2022-12-07T11:41:52;1.85;;;1.75;;
49590;SDS011;35496;-21.974;-46.800;2022-12-07T11:44:27;2.17;;;1.40;;
49590;SDS011;35496;-21.974;-46.800;2022-12-07T11:47:16;4.43;;;2.70;;
49590;SDS011;35496;-21.974;-46.800;2022-12-07T11:49:51;1.77;;;1.45;;
49590;SDS011;35496;-21.974;-46.800;2022-12-07T11:52:27;1.90;;;1.80;;
49590;SDS011;35496;-21.974;-46.800;2022-12-07T11:54:56;3.03;;;2.72;;
49590;SDS011;35496;-21.974;-46.800;2022-12-07T11:57:30;2.58;;;2.13;;
49590;SDS011;35496;-21.974;-46.800;2022-12-07T12:00:00;3.83;;;3.30;;
49590;SDS011;35496;-21.974;-46.800;2022-12-07T12:02:31;5.22;;;4.72;;
49590;SDS011;35496;-21.974;-46.800;2022-12-07T12:05:02;3.90;;;3.65;;
49590;SDS011;35496;-21.974;-46.800;2022-12-07T12:07:31;4.05;;;3.75;;
49590;SDS011;35496;-21.974;-46.800;2022-12-07T12:10:05;3.28;;;2.97;;
49590;SDS011;35496;-21.974;-46.800;2022-12-07T12:20:26;4.63;;;4.15;;
49590;SDS011;35496;-21.974;-46.800;2022-12-07T12:22:58;7.15;;;4.55;;
49590;SDS011;35496;-21.974;-46.800;2022-12-07T12:25:27;5.28;;;4.75;;
49590;SDS011;35496;-21.974;-46.800;2022-12-07T12:27:54;4.57;;;4.28;;
49590;SDS011;35496;-21.974;-46.800;2022-12-07T12:30:26;6.28;;;4.60;;
49590;SDS011;35496;-21.974;-46.800;2022-12-07T12:32:54;5.70;;;5.10;;
49590;SDS011;35496;-21.974;-46.800;2022-12-07T12:35:32;6.88;;;6.00;;
49590;SDS011;35496;-21.974;-46.800;2022-12-07T12:40:43;7.40;;;6.70;;
49590;SDS011;35496;-21.974;-46.800;2022-12-07T12:43:52;9.32;;;7.38;;
49590;SDS011;35496;-21.974;-46.800;2022-12-07T12:48:43;11.02;;;8.98;;
49590;SDS011;35496;-21.974;-46.800;2022-12-07T12:54:03;12.18;;;8.23;;
49590;SDS011;35496;-21.974;-46.800;2022-12-07T12:56:51;12.23;;;8.77;;
49590;SDS011;35496;-21.974;-46.800;2022-12-07T13:04:38;10.35;;;8.88;;
49590;SDS011;35496;-21.974;-46.800;2022-12-07T13:07:09;7.57;;;6.68;;
49590;SDS011;35496;-21.974;-46.800;2022-12-07T13:09:36;7.20;;;6.50;;
49590;SDS011;35496;-21.974;-46.800;2022-12-07T13:12:11;6.10;;;5.60;;
49590;SDS011;35496;-21.974;-46.800;2022-12-07T13:14:54;6.45;;;5.85;;
49590;SDS011;35496;-21.974;-46.800;2022-12-07T13:19:57;5.28;;;4.82;;
49590;SDS011;35496;-21.974;-46.800;2022-12-07T13:27:22;5.35;;;4.57;;
49590;SDS011;35496;-21.974;-46.800;2022-12-07T13:29:48;5.88;;;4.05;;
49590;SDS011;35496;-21.974;-46.800;2022-12-07T13:32:25;4.00;;;3.35;;
49590;SDS011;35496;-21.974;-46.800;2022-12-07T13:34:51;2.80;;;2.60;;
49590;SDS011;35496;-21.974;-46.800;2022-12-07T13:37:24;4.40;;;3.15;;
49590;SDS011;35496;-21.974;-46.800;2022-12-07T13:39:52;5.65;;;3.22;;
49590;SDS011;35496;-21.974;-46.800;2022-12-07T13:42:24;3.03;;;2.72;;
49590;SDS011;35496;-21.974;-46.800;2022-12-07T13:44:51;4.85;;;4.00;;
49590;SDS011;35496;-21.974;-46.800;2022-12-07T13:47:20;3.10;;;2.88;;
49590;SDS011;35496;-21.974;-46.800;2022-12-07T13:49:53;2.75;;;2.55;;
49590;SDS011;35496;-21.974;-46.800;2022-12-07T13:52:23;4.93;;;1.90;;
49590;SDS011;35496;-21.974;-46.800;2022-12-07T13:54:55;1.80;;;1.70;;
49590;SDS011;35496;-21.974;-46.800;2022-12-07T13:57:22;2.20;;;1.40;;
49590;SDS011;35496;-21.974;-46.800;2022-12-07T13:59:50;1.65;;;1.55;;
49590;SDS011;35496;-21.974;-46.800;2022-12-07T14:02:25;1.00;;;1.00;;
49590;SDS011;35496;-21.974;-46.800;2022-12-07T14:05:05;1.55;;;1.45;;
49590;SDS011;35496;-21.974;-46.800;2022-12-07T14:07:31;3.22;;;1.10;;
49590;SDS011;35496;-21.974;-46.800;2022-12-07T14:10:00;1.30;;;1.20;;
49590;SDS011;35496;-21.974;-46.800;2022-12-07T14:12:27;1.60;;;1.50;;
49590;SDS011;35496;-21.974;-46.800;2022-12-07T14:14:53;0.93;;;0.93;;
49590;SDS011;35496;-21.974;-46.800;2022-12-07T14:17:21;1.98;;;1.33;;
49590;SDS011;35496;-21.974;-46.800;2022-12-07T14:22:39;1.05;;;1.05;;
49590;SDS011;35496;-21.974;-46.800;2022-12-07T14:27:31;3.53;;;1.13;;
49590;SDS011;35496;-21.974;-46.800;2022-12-07T14:30:00;0.93;;;0.80;;
49590;SDS011;35496;-21.974;-46.800;2022-12-07T14:32:27;0.88;;;0.88;;
49590;SDS011;35496;-21.974;-46.800;2022-12-07T14:37:24;1.27;;;0.90;;
49590;SDS011;35496;-21.974;-46.800;2022-12-07T14:39:50;1.30;;;0.80;;
49590;SDS011;35496;-21.974;-46.800;2022-12-07T14:42:16;2.78;;;1.65;;
49590;SDS011;35496;-21.974;-46.800;2022-12-07T14:44:42;1.60;;;1.40;;
49590;SDS011;35496;-21.974;-46.800;2022-12-07T14:47:12;3.50;;;2.35;;
49590;SDS011;35496;-21.974;-46.800;2022-12-07T14:49:38;2.63;;;2.42;;
49590;SDS011;35496;-21.974;-46.800;2022-12-07T14:52:05;3.28;;;3.08;;
49590;SDS011;35496;-21.974;-46.800;2022-12-07T14:54:31;3.05;;;2.35;;
49590;SDS011;35496;-21.974;-46.800;2022-12-07T14:56:58;2.95;;;2.70;;
49590;SDS011;35496;-21.974;-46.800;2022-12-07T14:59:24;2.42;;;2.22;;
49590;SDS011;35496;-21.974;-46.800;2022-12-07T15:01:50;5.90;;;3.08;;
49590;SDS011;35496;-21.974;-46.800;2022-12-07T15:04:16;3.28;;;3.00;;
49590;SDS011;35496;-21.974;-46.800;2022-12-07T15:06:53;4.45;;;2.92;;
49590;SDS011;35496;-21.974;-46.800;2022-12-07T15:09:19;2.70;;;2.55;;
49590;SDS011;35496;-21.974;-46.800;2022-12-07T15:11:45;3.08;;;2.78;;
49590;SDS011;35496;-21.974;-46.800;2022-12-07T15:14:12;4.95;;;3.45;;
49590;SDS011;35496;-21.974;-46.800;2022-12-07T15:16:39;2.90;;;2.70;;
49590;SDS011;35496;-21.974;-46.800;2022-12-07T15:19:09;3.42;;;3.15;;
49590;SDS011;35496;-21.974;-46.800;2022-12-07T15:21:36;2.60;;;2.40;;
49590;SDS011;35496;-21.974;-46.800;2022-12-07T15:24:02;3.30;;;3.05;;
49590;SDS011;35496;-21.974;-46.800;2022-12-07T15:26:28;4.07;;;3.78;;
49590;SDS011;35496;-21.974;-46.800;2022-12-07T15:28:54;10.18;;;3.67;;
49590;SDS011;35496;-21.974;-46.800;2022-12-07T15:31:20;4.72;;;4.40;;
49590;SDS011;35496;-21.974;-46.800;2022-12-07T15:33:46;4.38;;;4.03;;
49590;SDS011;35496;-21.974;-46.800;2022-12-07T15:36:23;5.93;;;4.00;;
49590;SDS011;35496;-21.974;-46.800;2022-12-07T15:38:49;6.18;;;5.10;;
49590;SDS011;35496;-21.974;-46.800;2022-12-07T15:41:16;5.35;;;4.85;;
49590;SDS011;35496;-21.974;-46.800;2022-12-07T15:43:43;7.25;;;3.67;;
49590;SDS011;35496;-21.974;-46.800;2022-12-07T15:46:31;6.07;;;5.03;;
49590;SDS011;35496;-21.974;-46.800;2022-12-07T15:48:57;4.65;;;3.90;;
49590;SDS011;35496;-21.974;-46.800;2022-12-07T15:51:23;4.78;;;4.32;;
49590;SDS011;35496;-21.974;-46.800;2022-12-07T15:53:50;4.22;;;3.70;;
49590;SDS011;35496;-21.974;-46.800;2022-12-07T15:56:16;12.90;;;6.20;;
49590;SDS011;35496;-21.974;-46.800;2022-12-07T15:58:42;4.97;;;2.72;;
49590;SDS011;35496;-21.974;-46.800;2022-12-07T16:01:18;3.25;;;2.00;;
49590;SDS011;35496;-21.974;-46.800;2022-12-07T16:03:44;3.20;;;2.08;;
49590;SDS011;35496;-21.974;-46.800;2022-12-07T16:06:11;4.70;;;1.98;;
49590;SDS011;35496;-21.974;-46.800;2022-12-07T16:08:41;1.48;;;1.23;;
49590;SDS011;35496;-21.974;-46.800;2022-12-07T16:11:07;1.08;;;0.80;;
49590;SDS011;35496;-21.974;-46.800;2022-12-07T16:13:33;2.03;;;1.00;;
49590;SDS011;35496;-21.974;-46.800;2022-12-07T16:16:04;1.73;;;0.80;;
49590;SDS011;35496;-21.974;-46.800;2022-12-07T16:18:30;2.67;;;1.10;;
49590;SDS011;35496;-21.974;-46.800;2022-12-07T16:20:56;1.42;;;1.00;;
49590;SDS011;35496;-21.974;-46.800;2022-12-07T16:23:22;0.75;;;0.70;;